sensor_id;sensor_type;location;lat;lon;timestamp;P1;durP1;ratioP1;P2;durP2;ratioP2
74064;SDS011;62421;51.412;5.432;2022-12-07T00:01:35;22.58;;;11.40;;
74064;SDS011;62421;51.412;5.432;2022-12-07T00:04:05;19.15;;;11.77;;
74064;SDS011;62421;51.412;5.432;2022-12-07T00:08:58;24.92;;;14.10;;
74064;SDS011;62421;51.412;5.432;2022-12-07T00:11:24;23.43;;;13.57;;
74064;SDS011;62421;51.412;5.432;2022-12-07T00:13:53;25.20;;;12.63;;
74064;SDS011;62421;51.412;5.432;2022-12-07T00:16:21;20.55;;;11.85;;
74064;SDS011;62421;51.412;5.432;2022-12-07T00:18:47;24.35;;;12.50;;
74064;SDS011;62421;51.412;5.432;2022-12-07T00:21:14;20.03;;;12.23;;
74064;SDS011;62421;51.412;5.432;2022-12-07T00:23:44;18.25;;;11.00;;
74064;SDS011;62421;51.412;5.432;2022-12-07T00:26:16;21.60;;;10.67;;
74064;SDS011;62421;51.412;5.432;2022-12-07T00:28:46;19.98;;;9.73;;
74064;SDS011;62421;51.412;5.432;2022-12-07T00:31:13;16.08;;;9.48;;
74064;SDS011;62421;51.412;5.432;2022-12-07T00:33:39;16.35;;;9.80;;
74064;SDS011;62421;51.412;5.432;2022-12-07T00:36:06;23.23;;;12.23;;
74064;SDS011;62421;51.412;5.432;2022-12-07T00:38:34;23.23;;;11.40;;
74064;SDS011;62421;51.412;5.432;2022-12-07T00:41:01;17.93;;;10.73;;
74064;SDS011;62421;51.412;5.432;2022-12-07T00:43:29;17.98;;;10.27;;
74064;SDS011;62421;51.412;5.432;2022-12-07T00:45:55;20.38;;;10.20;;
74064;SDS011;62421;51.412;5.432;2022-12-07T00:48:21;16.45;;;9.27;;
74064;SDS011;62421;51.412;5.432;2022-12-07T00:50:47;17.40;;;9.77;;
74064;SDS011;62421;51.412;5.432;2022-12-07T00:53:12;14.57;;;8.77;;
74064;SDS011;62421;51.412;5.432;2022-12-07T00:55:38;16.90;;;9.88;;
74064;SDS011;62421;51.412;5.432;2022-12-07T00:58:03;17.30;;;9.00;;
74064;SDS011;62421;51.412;5.432;2022-12-07T01:00:29;13.47;;;8.07;;
74064;SDS011;62421;51.412;5.432;2022-12-07T01:02:55;16.73;;;9.43;;
74064;SDS011;62421;51.412;5.432;2022-12-07T01:05:20;14.30;;;8.90;;
74064;SDS011;62421;51.412;5.432;2022-12-07T01:07:46;16.92;;;9.48;;
74064;SDS011;62421;51.412;5.432;2022-12-07T01:10:12;21.53;;;9.67;;
74064;SDS011;62421;51.412;5.432;2022-12-07T01:12:38;22.75;;;10.48;;
74064;SDS011;62421;51.412;5.432;2022-12-07T01:15:04;14.30;;;9.20;;
74064;SDS011;62421;51.412;5.432;2022-12-07T01:17:30;19.98;;;11.10;;
74064;SDS011;62421;51.412;5.432;2022-12-07T01:19:55;16.90;;;9.73;;
74064;SDS011;62421;51.412;5.432;2022-12-07T01:22:20;19.10;;;9.73;;
74064;SDS011;62421;51.412;5.432;2022-12-07T01:24:46;15.50;;;9.10;;
74064;SDS011;62421;51.412;5.432;2022-12-07T01:27:12;16.13;;;10.05;;
74064;SDS011;62421;51.412;5.432;2022-12-07T01:29:38;19.45;;;8.68;;
74064;SDS011;62421;51.412;5.432;2022-12-07T01:32:03;17.60;;;9.45;;
74064;SDS011;62421;51.412;5.432;2022-12-07T01:34:29;19.43;;;10.07;;
74064;SDS011;62421;51.412;5.432;2022-12-07T01:36:54;19.27;;;11.97;;
74064;SDS011;62421;51.412;5.432;2022-12-07T01:39:19;18.43;;;11.50;;
74064;SDS011;62421;51.412;5.432;2022-12-07T01:41:45;21.43;;;12.20;;
74064;SDS011;62421;51.412;5.432;2022-12-07T01:44:23;21.33;;;13.70;;
74064;SDS011;62421;51.412;5.432;2022-12-07T01:46:50;21.60;;;13.77;;
74064;SDS011;62421;51.412;5.432;2022-12-07T01:49:43;18.85;;;11.95;;
74064;SDS011;62421;51.412;5.432;2022-12-07T01:52:13;20.60;;;11.07;;
74064;SDS011;62421;51.412;5.432;2022-12-07T01:54:44;15.90;;;10.23;;
74064;SDS011;62421;51.412;5.432;2022-12-07T01:57:13;20.25;;;9.75;;
74064;SDS011;62421;51.412;5.432;2022-12-07T01:59:45;15.82;;;10.18;;
74064;SDS011;62421;51.412;5.432;2022-12-07T02:02:17;15.63;;;9.82;;
74064;SDS011;62421;51.412;5.432;2022-12-07T02:04:45;18.60;;;10.75;;
74064;SDS011;62421;51.412;5.432;2022-12-07T02:07:11;21.03;;;11.47;;
74064;SDS011;62421;51.412;5.432;2022-12-07T02:09:37;22.92;;;11.15;;
74064;SDS011;62421;51.412;5.432;2022-12-07T02:12:02;21.37;;;10.13;;
74064;SDS011;62421;51.412;5.432;2022-12-07T02:14:29;23.83;;;10.55;;
74064;SDS011;62421;51.412;5.432;2022-12-07T02:19:41;17.05;;;9.52;;
74064;SDS011;62421;51.412;5.432;2022-12-07T02:30:32;16.05;;;8.40;;
74064;SDS011;62421;51.412;5.432;2022-12-07T02:33:04;15.25;;;8.68;;
74064;SDS011;62421;51.412;5.432;2022-12-07T02:35:40;15.83;;;9.40;;
74064;SDS011;62421;51.412;5.432;2022-12-07T02:38:26;15.48;;;9.20;;
74064;SDS011;62421;51.412;5.432;2022-12-07T02:41:03;15.50;;;8.45;;
74064;SDS011;62421;51.412;5.432;2022-12-07T02:43:34;18.70;;;8.55;;
74064;SDS011;62421;51.412;5.432;2022-12-07T02:46:04;15.80;;;9.57;;
74064;SDS011;62421;51.412;5.432;2022-12-07T02:48:33;16.87;;;10.00;;
74064;SDS011;62421;51.412;5.432;2022-12-07T02:50:59;16.63;;;10.10;;
74064;SDS011;62421;51.412;5.432;2022-12-07T02:53:43;18.77;;;9.88;;
74064;SDS011;62421;51.412;5.432;2022-12-07T03:12:23;19.67;;;8.80;;
74064;SDS011;62421;51.412;5.432;2022-12-07T03:17:52;13.98;;;8.60;;
74064;SDS011;62421;51.412;5.432;2022-12-07T03:20:21;20.27;;;9.30;;
74064;SDS011;62421;51.412;5.432;2022-12-07T03:22:49;17.25;;;9.05;;
74064;SDS011;62421;51.412;5.432;2022-12-07T03:25:16;21.52;;;7.75;;
74064;SDS011;62421;51.412;5.432;2022-12-07T03:27:44;12.85;;;6.32;;
74064;SDS011;62421;51.412;5.432;2022-12-07T03:30:12;11.50;;;6.68;;
74064;SDS011;62421;51.412;5.432;2022-12-07T03:32:45;15.47;;;8.00;;
74064;SDS011;62421;51.412;5.432;2022-12-07T03:41:00;17.08;;;6.80;;
74064;SDS011;62421;51.412;5.432;2022-12-07T03:43:29;17.55;;;8.50;;
74064;SDS011;62421;51.412;5.432;2022-12-07T03:46:00;15.13;;;8.57;;
74064;SDS011;62421;51.412;5.432;2022-12-07T03:48:35;15.50;;;8.10;;
74064;SDS011;62421;51.412;5.432;2022-12-07T03:51:08;16.27;;;7.90;;
74064;SDS011;62421;51.412;5.432;2022-12-07T03:53:44;18.50;;;7.97;;
74064;SDS011;62421;51.412;5.432;2022-12-07T03:56:14;15.57;;;7.80;;
74064;SDS011;62421;51.412;5.432;2022-12-07T03:58:40;12.65;;;7.88;;
74064;SDS011;62421;51.412;5.432;2022-12-07T04:01:06;17.85;;;9.80;;
74064;SDS011;62421;51.412;5.432;2022-12-07T04:03:31;17.47;;;9.20;;
74064;SDS011;62421;51.412;5.432;2022-12-07T04:05:57;16.17;;;9.17;;
74064;SDS011;62421;51.412;5.432;2022-12-07T04:08:23;17.15;;;10.20;;
74064;SDS011;62421;51.412;5.432;2022-12-07T04:10:49;18.08;;;10.93;;
74064;SDS011;62421;51.412;5.432;2022-12-07T04:13:15;19.17;;;10.60;;
74064;SDS011;62421;51.412;5.432;2022-12-07T04:15:40;15.40;;;10.37;;
74064;SDS011;62421;51.412;5.432;2022-12-07T04:18:05;19.37;;;10.63;;
74064;SDS011;62421;51.412;5.432;2022-12-07T04:20:31;16.63;;;10.27;;
74064;SDS011;62421;51.412;5.432;2022-12-07T04:22:56;16.50;;;10.20;;
74064;SDS011;62421;51.412;5.432;2022-12-07T04:25:21;18.70;;;10.17;;
74064;SDS011;62421;51.412;5.432;2022-12-07T04:27:47;20.80;;;10.93;;
74064;SDS011;62421;51.412;5.432;2022-12-07T04:30:12;23.03;;;11.77;;
74064;SDS011;62421;51.412;5.432;2022-12-07T04:32:38;17.88;;;9.43;;
74064;SDS011;62421;51.412;5.432;2022-12-07T04:35:03;15.63;;;8.83;;
74064;SDS011;62421;51.412;5.432;2022-12-07T04:37:29;18.65;;;8.48;;
74064;SDS011;62421;51.412;5.432;2022-12-07T04:39:54;15.33;;;7.40;;
74064;SDS011;62421;51.412;5.432;2022-12-07T04:42:20;15.97;;;7.23;;
74064;SDS011;62421;51.412;5.432;2022-12-07T04:44:45;13.67;;;7.97;;
74064;SDS011;62421;51.412;5.432;2022-12-07T04:47:10;18.77;;;8.67;;
74064;SDS011;62421;51.412;5.432;2022-12-07T04:49:36;14.10;;;7.77;;
74064;SDS011;62421;51.412;5.432;2022-12-07T04:52:01;14.83;;;7.03;;
74064;SDS011;62421;51.412;5.432;2022-12-07T04:54:27;16.67;;;7.20;;
74064;SDS011;62421;51.412;5.432;2022-12-07T04:56:52;18.93;;;7.33;;
74064;SDS011;62421;51.412;5.432;2022-12-07T04:59:18;16.03;;;8.37;;
74064;SDS011;62421;51.412;5.432;2022-12-07T05:01:43;16.88;;;7.55;;
74064;SDS011;62421;51.412;5.432;2022-12-07T05:04:09;16.47;;;8.83;;
74064;SDS011;62421;51.412;5.432;2022-12-07T05:06:35;18.65;;;9.93;;
74064;SDS011;62421;51.412;5.432;2022-12-07T05:09:00;21.47;;;10.17;;
74064;SDS011;62421;51.412;5.432;2022-12-07T05:11:26;21.23;;;11.57;;
74064;SDS011;62421;51.412;5.432;2022-12-07T05:14:14;23.85;;;11.07;;
74064;SDS011;62421;51.412;5.432;2022-12-07T05:16:41;16.23;;;9.23;;
74064;SDS011;62421;51.412;5.432;2022-12-07T05:19:08;14.77;;;8.20;;
74064;SDS011;62421;51.412;5.432;2022-12-07T05:21:34;13.60;;;6.68;;
74064;SDS011;62421;51.412;5.432;2022-12-07T05:24:00;20.88;;;7.30;;
74064;SDS011;62421;51.412;5.432;2022-12-07T05:26:25;13.37;;;5.90;;
74064;SDS011;62421;51.412;5.432;2022-12-07T05:28:52;14.70;;;6.47;;
74064;SDS011;62421;51.412;5.432;2022-12-07T05:31:18;15.68;;;6.53;;
74064;SDS011;62421;51.412;5.432;2022-12-07T05:33:44;21.40;;;6.50;;
74064;SDS011;62421;51.412;5.432;2022-12-07T05:36:09;12.80;;;6.27;;
74064;SDS011;62421;51.412;5.432;2022-12-07T05:38:34;13.73;;;5.97;;
74064;SDS011;62421;51.412;5.432;2022-12-07T05:41:03;17.93;;;6.87;;
74064;SDS011;62421;51.412;5.432;2022-12-07T05:43:30;19.75;;;7.95;;
74064;SDS011;62421;51.412;5.432;2022-12-07T05:45:56;14.80;;;7.38;;
74064;SDS011;62421;51.412;5.432;2022-12-07T05:48:22;14.07;;;7.53;;
74064;SDS011;62421;51.412;5.432;2022-12-07T05:50:48;17.35;;;7.15;;
74064;SDS011;62421;51.412;5.432;2022-12-07T05:53:13;14.40;;;6.90;;
74064;SDS011;62421;51.412;5.432;2022-12-07T05:55:39;15.48;;;5.70;;
74064;SDS011;62421;51.412;5.432;2022-12-07T05:58:04;18.93;;;6.90;;
74064;SDS011;62421;51.412;5.432;2022-12-07T06:00:48;16.52;;;6.22;;
74064;SDS011;62421;51.412;5.432;2022-12-07T06:03:13;11.02;;;5.43;;
74064;SDS011;62421;51.412;5.432;2022-12-07T06:05:39;13.70;;;4.43;;
74064;SDS011;62421;51.412;5.432;2022-12-07T06:08:04;14.75;;;4.75;;
74064;SDS011;62421;51.412;5.432;2022-12-07T06:10:29;13.30;;;5.13;;
74064;SDS011;62421;51.412;5.432;2022-12-07T06:12:54;14.30;;;5.30;;
74064;SDS011;62421;51.412;5.432;2022-12-07T06:15:20;10.00;;;4.90;;
74064;SDS011;62421;51.412;5.432;2022-12-07T06:17:46;9.87;;;4.67;;
74064;SDS011;62421;51.412;5.432;2022-12-07T06:20:12;11.40;;;5.10;;
74064;SDS011;62421;51.412;5.432;2022-12-07T06:22:38;19.27;;;5.93;;
74064;SDS011;62421;51.412;5.432;2022-12-07T06:25:03;19.00;;;6.90;;
74064;SDS011;62421;51.412;5.432;2022-12-07T06:27:29;15.17;;;6.23;;
74064;SDS011;62421;51.412;5.432;2022-12-07T06:29:54;17.80;;;5.93;;
74064;SDS011;62421;51.412;5.432;2022-12-07T06:32:19;16.37;;;6.37;;
74064;SDS011;62421;51.412;5.432;2022-12-07T06:34:45;10.73;;;7.03;;
74064;SDS011;62421;51.412;5.432;2022-12-07T06:37:11;15.50;;;5.78;;
74064;SDS011;62421;51.412;5.432;2022-12-07T06:39:36;14.90;;;6.47;;
74064;SDS011;62421;51.412;5.432;2022-12-07T06:42:02;20.20;;;7.40;;
74064;SDS011;62421;51.412;5.432;2022-12-07T06:44:27;16.63;;;7.47;;
74064;SDS011;62421;51.412;5.432;2022-12-07T06:46:53;16.97;;;7.67;;
74064;SDS011;62421;51.412;5.432;2022-12-07T06:49:18;21.27;;;9.40;;
74064;SDS011;62421;51.412;5.432;2022-12-07T06:51:44;25.87;;;9.57;;
74064;SDS011;62421;51.412;5.432;2022-12-07T06:54:13;22.00;;;9.43;;
74064;SDS011;62421;51.412;5.432;2022-12-07T06:56:39;23.65;;;10.73;;
74064;SDS011;62421;51.412;5.432;2022-12-07T06:59:05;27.23;;;12.27;;
74064;SDS011;62421;51.412;5.432;2022-12-07T07:01:32;19.60;;;10.73;;
74064;SDS011;62421;51.412;5.432;2022-12-07T07:03:58;20.42;;;10.75;;
74064;SDS011;62421;51.412;5.432;2022-12-07T07:06:24;22.75;;;10.65;;
74064;SDS011;62421;51.412;5.432;2022-12-07T07:08:49;21.80;;;11.13;;
74064;SDS011;62421;51.412;5.432;2022-12-07T07:11:15;31.10;;;11.40;;
74064;SDS011;62421;51.412;5.432;2022-12-07T07:13:40;22.13;;;10.93;;
74064;SDS011;62421;51.412;5.432;2022-12-07T07:16:06;23.93;;;11.77;;
74064;SDS011;62421;51.412;5.432;2022-12-07T07:18:32;27.90;;;11.57;;
74064;SDS011;62421;51.412;5.432;2022-12-07T07:20:57;28.70;;;12.20;;
74064;SDS011;62421;51.412;5.432;2022-12-07T07:23:23;19.73;;;12.60;;
74064;SDS011;62421;51.412;5.432;2022-12-07T07:25:48;27.90;;;12.77;;
74064;SDS011;62421;51.412;5.432;2022-12-07T07:28:14;32.97;;;12.70;;
74064;SDS011;62421;51.412;5.432;2022-12-07T07:30:40;23.00;;;11.40;;
74064;SDS011;62421;51.412;5.432;2022-12-07T07:33:05;29.13;;;11.30;;
74064;SDS011;62421;51.412;5.432;2022-12-07T07:35:32;27.35;;;12.55;;
74064;SDS011;62421;51.412;5.432;2022-12-07T07:37:58;26.10;;;11.98;;
74064;SDS011;62421;51.412;5.432;2022-12-07T07:40:24;27.83;;;11.87;;
74064;SDS011;62421;51.412;5.432;2022-12-07T07:42:50;28.73;;;12.73;;
74064;SDS011;62421;51.412;5.432;2022-12-07T07:45:16;26.25;;;12.63;;
74064;SDS011;62421;51.412;5.432;2022-12-07T07:47:42;24.98;;;12.70;;
74064;SDS011;62421;51.412;5.432;2022-12-07T07:50:07;22.83;;;11.73;;
74064;SDS011;62421;51.412;5.432;2022-12-07T07:52:33;27.23;;;13.23;;
74064;SDS011;62421;51.412;5.432;2022-12-07T07:54:58;27.80;;;13.07;;
74064;SDS011;62421;51.412;5.432;2022-12-07T07:57:24;26.70;;;14.18;;
74064;SDS011;62421;51.412;5.432;2022-12-07T07:59:49;28.20;;;13.77;;
74064;SDS011;62421;51.412;5.432;2022-12-07T08:02:15;30.37;;;13.70;;
74064;SDS011;62421;51.412;5.432;2022-12-07T08:04:43;33.53;;;14.30;;
74064;SDS011;62421;51.412;5.432;2022-12-07T08:07:09;26.35;;;13.98;;
74064;SDS011;62421;51.412;5.432;2022-12-07T08:09:35;25.20;;;12.73;;
74064;SDS011;62421;51.412;5.432;2022-12-07T08:12:00;23.30;;;12.73;;
74064;SDS011;62421;51.412;5.432;2022-12-07T08:14:25;25.67;;;13.00;;
74064;SDS011;62421;51.412;5.432;2022-12-07T08:16:52;30.50;;;11.65;;
74064;SDS011;62421;51.412;5.432;2022-12-07T08:19:17;22.37;;;11.90;;
74064;SDS011;62421;51.412;5.432;2022-12-07T08:21:43;32.87;;;14.30;;
74064;SDS011;62421;51.412;5.432;2022-12-07T08:24:08;23.53;;;11.43;;
74064;SDS011;62421;51.412;5.432;2022-12-07T08:26:33;32.60;;;12.60;;
74064;SDS011;62421;51.412;5.432;2022-12-07T08:28:59;27.20;;;12.13;;
74064;SDS011;62421;51.412;5.432;2022-12-07T08:31:24;27.27;;;11.33;;
74064;SDS011;62421;51.412;5.432;2022-12-07T08:33:49;22.98;;;11.27;;
74064;SDS011;62421;51.412;5.432;2022-12-07T08:36:15;19.47;;;11.30;;
74064;SDS011;62421;51.412;5.432;2022-12-07T08:38:41;25.20;;;11.00;;
74064;SDS011;62421;51.412;5.432;2022-12-07T08:41:07;23.58;;;12.23;;
74064;SDS011;62421;51.412;5.432;2022-12-07T08:43:33;22.83;;;11.25;;
74064;SDS011;62421;51.412;5.432;2022-12-07T08:48:49;27.63;;;12.77;;
74064;SDS011;62421;51.412;5.432;2022-12-07T08:51:34;23.58;;;12.70;;
74064;SDS011;62421;51.412;5.432;2022-12-07T08:54:01;25.92;;;11.75;;
74064;SDS011;62421;51.412;5.432;2022-12-07T08:56:31;22.13;;;11.52;;
74064;SDS011;62421;51.412;5.432;2022-12-07T08:58:57;30.80;;;12.37;;
74064;SDS011;62421;51.412;5.432;2022-12-07T09:01:23;21.88;;;11.02;;
74064;SDS011;62421;51.412;5.432;2022-12-07T09:03:48;23.90;;;11.50;;
74064;SDS011;62421;51.412;5.432;2022-12-07T09:06:13;23.03;;;10.60;;
74064;SDS011;62421;51.412;5.432;2022-12-07T09:08:40;23.17;;;10.37;;
74064;SDS011;62421;51.412;5.432;2022-12-07T09:11:10;30.60;;;12.10;;
74064;SDS011;62421;51.412;5.432;2022-12-07T09:13:36;25.23;;;11.33;;
74064;SDS011;62421;51.412;5.432;2022-12-07T09:16:01;23.53;;;11.17;;
74064;SDS011;62421;51.412;5.432;2022-12-07T09:18:26;29.70;;;12.25;;
74064;SDS011;62421;51.412;5.432;2022-12-07T09:20:52;26.48;;;11.80;;
74064;SDS011;62421;51.412;5.432;2022-12-07T09:23:17;21.67;;;12.93;;
74064;SDS011;62421;51.412;5.432;2022-12-07T09:25:43;26.77;;;12.43;;
74064;SDS011;62421;51.412;5.432;2022-12-07T09:28:08;30.97;;;14.30;;
74064;SDS011;62421;51.412;5.432;2022-12-07T09:30:33;24.00;;;11.43;;
74064;SDS011;62421;51.412;5.432;2022-12-07T09:32:59;18.27;;;11.03;;
74064;SDS011;62421;51.412;5.432;2022-12-07T09:35:24;22.93;;;8.83;;
74064;SDS011;62421;51.412;5.432;2022-12-07T09:37:50;16.10;;;9.85;;
74064;SDS011;62421;51.412;5.432;2022-12-07T09:40:16;17.15;;;8.27;;
74064;SDS011;62421;51.412;5.432;2022-12-07T09:42:45;21.15;;;8.68;;
74064;SDS011;62421;51.412;5.432;2022-12-07T09:45:15;16.60;;;8.30;;
74064;SDS011;62421;51.412;5.432;2022-12-07T09:47:44;20.00;;;8.18;;
74064;SDS011;62421;51.412;5.432;2022-12-07T09:50:14;17.20;;;7.88;;
74064;SDS011;62421;51.412;5.432;2022-12-07T09:52:42;19.27;;;8.80;;
74064;SDS011;62421;51.412;5.432;2022-12-07T09:55:11;17.45;;;8.35;;
74064;SDS011;62421;51.412;5.432;2022-12-07T09:57:38;16.47;;;8.07;;
74064;SDS011;62421;51.412;5.432;2022-12-07T10:00:06;24.17;;;9.55;;
74064;SDS011;62421;51.412;5.432;2022-12-07T10:02:38;24.77;;;8.77;;
74064;SDS011;62421;51.412;5.432;2022-12-07T10:05:16;18.30;;;9.60;;
74064;SDS011;62421;51.412;5.432;2022-12-07T10:07:44;20.13;;;8.77;;
74064;SDS011;62421;51.412;5.432;2022-12-07T10:10:14;21.40;;;8.10;;
74064;SDS011;62421;51.412;5.432;2022-12-07T10:15:21;17.60;;;7.95;;
74064;SDS011;62421;51.412;5.432;2022-12-07T10:17:48;13.60;;;7.10;;
74064;SDS011;62421;51.412;5.432;2022-12-07T10:20:21;18.45;;;7.88;;
74064;SDS011;62421;51.412;5.432;2022-12-07T10:25:22;18.98;;;7.63;;
74064;SDS011;62421;51.412;5.432;2022-12-07T10:27:57;22.23;;;7.72;;
74064;SDS011;62421;51.412;5.432;2022-12-07T10:30:53;23.17;;;7.20;;
74064;SDS011;62421;51.412;5.432;2022-12-07T10:33:32;21.33;;;8.30;;
74064;SDS011;62421;51.412;5.432;2022-12-07T10:36:00;14.48;;;6.35;;
74064;SDS011;62421;51.412;5.432;2022-12-07T10:38:43;18.65;;;6.60;;
74064;SDS011;62421;51.412;5.432;2022-12-07T10:41:11;18.95;;;6.70;;
74064;SDS011;62421;51.412;5.432;2022-12-07T10:43:36;14.90;;;6.97;;
74064;SDS011;62421;51.412;5.432;2022-12-07T10:46:21;18.07;;;7.03;;
74064;SDS011;62421;51.412;5.432;2022-12-07T10:52:13;18.98;;;6.20;;
74064;SDS011;62421;51.412;5.432;2022-12-07T10:54:48;14.38;;;5.68;;
74064;SDS011;62421;51.412;5.432;2022-12-07T11:00:18;13.43;;;5.60;;
74064;SDS011;62421;51.412;5.432;2022-12-07T11:11:13;18.90;;;6.57;;
74064;SDS011;62421;51.412;5.432;2022-12-07T11:19:55;22.40;;;7.43;;
74064;SDS011;62421;51.412;5.432;2022-12-07T11:28:07;12.30;;;5.57;;
74064;SDS011;62421;51.412;5.432;2022-12-07T11:30:57;10.13;;;5.50;;
74064;SDS011;62421;51.412;5.432;2022-12-07T11:33:29;12.10;;;5.32;;
74064;SDS011;62421;51.412;5.432;2022-12-07T11:36:14;12.07;;;5.10;;
74064;SDS011;62421;51.412;5.432;2022-12-07T11:38:54;17.10;;;4.72;;
74064;SDS011;62421;51.412;5.432;2022-12-07T11:41:23;16.60;;;4.63;;
74064;SDS011;62421;51.412;5.432;2022-12-07T12:00:46;12.52;;;3.65;;
74064;SDS011;62421;51.412;5.432;2022-12-07T12:03:15;12.05;;;4.05;;
74064;SDS011;62421;51.412;5.432;2022-12-07T12:05:55;14.52;;;3.65;;
74064;SDS011;62421;51.412;5.432;2022-12-07T12:08:23;10.43;;;2.90;;
74064;SDS011;62421;51.412;5.432;2022-12-07T12:19:18;11.75;;;2.63;;
74064;SDS011;62421;51.412;5.432;2022-12-07T12:21:57;8.65;;;3.03;;
74064;SDS011;62421;51.412;5.432;2022-12-07T12:24:33;12.20;;;2.40;;
74064;SDS011;62421;51.412;5.432;2022-12-07T12:27:03;11.27;;;2.85;;
74064;SDS011;62421;51.412;5.432;2022-12-07T12:29:35;8.87;;;2.40;;
74064;SDS011;62421;51.412;5.432;2022-12-07T12:32:05;6.57;;;2.63;;
74064;SDS011;62421;51.412;5.432;2022-12-07T12:45:28;10.90;;;3.00;;
74064;SDS011;62421;51.412;5.432;2022-12-07T12:48:04;10.02;;;3.00;;
74064;SDS011;62421;51.412;5.432;2022-12-07T12:51:35;10.15;;;2.78;;
74064;SDS011;62421;51.412;5.432;2022-12-07T12:54:11;7.75;;;2.35;;
74064;SDS011;62421;51.412;5.432;2022-12-07T12:56:58;15.17;;;2.40;;
74064;SDS011;62421;51.412;5.432;2022-12-07T12:59:32;12.07;;;2.55;;
74064;SDS011;62421;51.412;5.432;2022-12-07T13:07:03;13.52;;;2.30;;
74064;SDS011;62421;51.412;5.432;2022-12-07T13:09:33;9.83;;;2.30;;
74064;SDS011;62421;51.412;5.432;2022-12-07T13:12:11;7.97;;;2.40;;
74064;SDS011;62421;51.412;5.432;2022-12-07T13:17:08;12.02;;;2.67;;
74064;SDS011;62421;51.412;5.432;2022-12-07T13:25:11;5.90;;;2.55;;
74064;SDS011;62421;51.412;5.432;2022-12-07T13:27:47;9.83;;;2.27;;
74064;SDS011;62421;51.412;5.432;2022-12-07T13:30:21;8.85;;;2.45;;
74064;SDS011;62421;51.412;5.432;2022-12-07T13:32:57;6.90;;;2.60;;
74064;SDS011;62421;51.412;5.432;2022-12-07T13:35:28;7.68;;;2.70;;
74064;SDS011;62421;51.412;5.432;2022-12-07T13:37:53;11.73;;;3.15;;
74064;SDS011;62421;51.412;5.432;2022-12-07T13:40:20;6.93;;;2.90;;
74064;SDS011;62421;51.412;5.432;2022-12-07T13:42:47;11.17;;;2.80;;
74064;SDS011;62421;51.412;5.432;2022-12-07T13:45:25;14.63;;;3.10;;
74064;SDS011;62421;51.412;5.432;2022-12-07T13:48:24;9.27;;;2.93;;
74064;SDS011;62421;51.412;5.432;2022-12-07T13:50:57;6.30;;;3.10;;
74064;SDS011;62421;51.412;5.432;2022-12-07T13:53:23;6.55;;;3.35;;
74064;SDS011;62421;51.412;5.432;2022-12-07T13:55:49;9.07;;;3.22;;
74064;SDS011;62421;51.412;5.432;2022-12-07T13:58:15;9.63;;;3.70;;
74064;SDS011;62421;51.412;5.432;2022-12-07T14:00:41;11.35;;;3.65;;
74064;SDS011;62421;51.412;5.432;2022-12-07T14:05:42;11.65;;;3.42;;
74064;SDS011;62421;51.412;5.432;2022-12-07T14:13:01;8.00;;;3.73;;
74064;SDS011;62421;51.412;5.432;2022-12-07T14:15:34;13.00;;;3.30;;
74064;SDS011;62421;51.412;5.432;2022-12-07T14:18:01;12.25;;;3.38;;
74064;SDS011;62421;51.412;5.432;2022-12-07T14:20:36;8.40;;;3.50;;
74064;SDS011;62421;51.412;5.432;2022-12-07T14:23:03;7.90;;;3.40;;
74064;SDS011;62421;51.412;5.432;2022-12-07T14:25:48;7.80;;;2.80;;
74064;SDS011;62421;51.412;5.432;2022-12-07T14:28:25;10.68;;;2.90;;
74064;SDS011;62421;51.412;5.432;2022-12-07T14:30:58;9.38;;;3.58;;
74064;SDS011;62421;51.412;5.432;2022-12-07T14:33:24;14.05;;;3.10;;
74064;SDS011;62421;51.412;5.432;2022-12-07T14:35:50;10.23;;;2.90;;
74064;SDS011;62421;51.412;5.432;2022-12-07T14:38:20;9.13;;;3.03;;
74064;SDS011;62421;51.412;5.432;2022-12-07T14:40:45;11.30;;;2.92;;
74064;SDS011;62421;51.412;5.432;2022-12-07T14:43:11;8.83;;;3.10;;
74064;SDS011;62421;51.412;5.432;2022-12-07T14:45:39;13.30;;;3.10;;
74064;SDS011;62421;51.412;5.432;2022-12-07T14:48:05;7.38;;;3.08;;
74064;SDS011;62421;51.412;5.432;2022-12-07T14:50:34;12.65;;;3.20;;
74064;SDS011;62421;51.412;5.432;2022-12-07T14:53:03;8.00;;;3.00;;
74064;SDS011;62421;51.412;5.432;2022-12-07T14:55:37;18.35;;;3.28;;
74064;SDS011;62421;51.412;5.432;2022-12-07T14:58:03;6.77;;;3.17;;
74064;SDS011;62421;51.412;5.432;2022-12-07T15:00:28;10.17;;;3.57;;
74064;SDS011;62421;51.412;5.432;2022-12-07T15:02:54;9.95;;;3.60;;
74064;SDS011;62421;51.412;5.432;2022-12-07T15:05:20;7.07;;;2.23;;
74064;SDS011;62421;51.412;5.432;2022-12-07T15:07:46;6.97;;;2.70;;
74064;SDS011;62421;51.412;5.432;2022-12-07T15:10:16;14.63;;;3.15;;
74064;SDS011;62421;51.412;5.432;2022-12-07T15:12:45;11.73;;;3.90;;
74064;SDS011;62421;51.412;5.432;2022-12-07T15:15:10;6.70;;;3.17;;
74064;SDS011;62421;51.412;5.432;2022-12-07T15:17:36;8.47;;;3.00;;
74064;SDS011;62421;51.412;5.432;2022-12-07T15:20:01;6.37;;;2.87;;
74064;SDS011;62421;51.412;5.432;2022-12-07T15:22:28;6.38;;;2.33;;
74064;SDS011;62421;51.412;5.432;2022-12-07T15:24:57;7.82;;;2.53;;
74064;SDS011;62421;51.412;5.432;2022-12-07T15:27:22;6.97;;;2.63;;
74064;SDS011;62421;51.412;5.432;2022-12-07T15:29:48;7.60;;;3.00;;
74064;SDS011;62421;51.412;5.432;2022-12-07T15:32:13;7.65;;;2.67;;
74064;SDS011;62421;51.412;5.432;2022-12-07T15:34:39;9.73;;;2.58;;
74064;SDS011;62421;51.412;5.432;2022-12-07T15:37:04;10.90;;;2.90;;
74064;SDS011;62421;51.412;5.432;2022-12-07T15:39:29;12.93;;;3.00;;
74064;SDS011;62421;51.412;5.432;2022-12-07T15:41:55;14.40;;;3.57;;
74064;SDS011;62421;51.412;5.432;2022-12-07T15:44:20;7.00;;;2.63;;
74064;SDS011;62421;51.412;5.432;2022-12-07T15:47:04;10.43;;;3.10;;
74064;SDS011;62421;51.412;5.432;2022-12-07T15:49:29;10.17;;;3.93;;
74064;SDS011;62421;51.412;5.432;2022-12-07T15:51:55;12.47;;;4.10;;
74064;SDS011;62421;51.412;5.432;2022-12-07T15:54:27;10.20;;;4.45;;
74064;SDS011;62421;51.412;5.432;2022-12-07T15:56:54;10.30;;;3.60;;
74064;SDS011;62421;51.412;5.432;2022-12-07T15:59:19;12.00;;;4.00;;
74064;SDS011;62421;51.412;5.432;2022-12-07T16:01:45;5.73;;;3.13;;
74064;SDS011;62421;51.412;5.432;2022-12-07T16:04:10;8.35;;;3.83;;
74064;SDS011;62421;51.412;5.432;2022-12-07T16:06:36;7.37;;;3.37;;
74064;SDS011;62421;51.412;5.432;2022-12-07T16:09:02;12.33;;;4.07;;
74064;SDS011;62421;51.412;5.432;2022-12-07T16:11:27;7.78;;;3.30;;
74064;SDS011;62421;51.412;5.432;2022-12-07T16:13:53;9.87;;;3.90;;
74064;SDS011;62421;51.412;5.432;2022-12-07T16:16:18;13.63;;;4.27;;
74064;SDS011;62421;51.412;5.432;2022-12-07T16:18:46;9.48;;;3.17;;
74064;SDS011;62421;51.412;5.432;2022-12-07T16:21:13;6.43;;;3.77;;
74064;SDS011;62421;51.412;5.432;2022-12-07T16:23:39;10.05;;;3.90;;
74064;SDS011;62421;51.412;5.432;2022-12-07T16:26:05;8.30;;;3.80;;
74064;SDS011;62421;51.412;5.432;2022-12-07T16:28:36;12.88;;;3.75;;
74064;SDS011;62421;51.412;5.432;2022-12-07T16:31:05;13.83;;;4.47;;
74064;SDS011;62421;51.412;5.432;2022-12-07T16:33:36;7.75;;;4.03;;
74064;SDS011;62421;51.412;5.432;2022-12-07T16:36:03;10.63;;;3.90;;
74064;SDS011;62421;51.412;5.432;2022-12-07T16:38:30;12.05;;;3.83;;
74064;SDS011;62421;51.412;5.432;2022-12-07T16:40:55;10.27;;;4.40;;
74064;SDS011;62421;51.412;5.432;2022-12-07T16:43:20;10.97;;;4.83;;
74064;SDS011;62421;51.412;5.432;2022-12-07T16:45:46;10.33;;;3.87;;
74064;SDS011;62421;51.412;5.432;2022-12-07T16:48:12;8.15;;;2.97;;
74064;SDS011;62421;51.412;5.432;2022-12-07T16:50:39;9.15;;;3.92;;